Terminal Aerodrome Forecast
Issued by NWS

Home | Current Version | Previous Version | Text Only | Print | Product List | Glossary On
Versions: 1 2 3 4 5 6 7 8 9 10 11 12 13 14 15 16
000
FTUS44 KMAF 232100 AAA
TAFCNM
TAF AMD
KCNM 232128Z 2321/2418 23021G31KT P6SM SCT250
     FM240200 27010KT P6SM SKC
     FM241200 36010KT P6SM SKC
     FM241400 05011G21KT P6SM SKC=

USA.gov is the U.S. government's official web portal to all federal, state and local government web resources and services.